• Join FlightAware (Why Join?)
  • Login
  • US Flag 
12:37PM EDT


 

Airport Tracker/Info


-or-


 

Live Flight TrackerFlight Track Log ✈ UAL332 ✈ 17-Sep-2013 ✈ KIAH - KMSY

Flight Track Log - Related Links

Times and Time Zones

All times are in EDT time to prevent confusion due to time zone crossing. See the UAL332 flight status page for this flight to view local times or setup timezone preferences in your user account.

Time Position Orientation Groundspeed Altitude Reporting Facility
EDT Latitude Longitude Course Direction KTS MPH feet Rate Location/Type
04:19PM 29.9597 -95.3439 102° East 154 177 900  Level Houston Center
04:20PM 29.9475 -95.2803 102° East 205 236 3,100 2,220 Climbing Houston Center
04:21PM 29.9425 -95.2219 96° East 235 270 5,200 3,300 Climbing Houston Center
04:21PM 29.9392 -95.1894 97° East 263 303 6,900 3,480 Climbing Houston Center
04:22PM 29.9347 -95.1386 96° East 261 300 8,800 3,420 Climbing Houston Center
04:22PM 29.9308 -95.1014 97° East 279 321 10,400 2,760 Climbing Houston Center
04:23PM 29.9269 -95.0483 95° East 275 316 11,700 2,040 Climbing Houston Center
04:23PM 29.9239 -95.0033 94° East 320 368 12,500 1,920 Climbing Houston Center
04:24PM 29.9181 -94.9431 96° East 313 360 13,700 2,040 Climbing Houston Center
04:24PM 29.9117 -94.8964 99° East 350 403 14,600 1,980 Climbing Houston Center
04:25PM 29.9086 -94.8275 93° East 348 400 15,800 1,380 Climbing Houston Center
04:26PM 29.8961 -94.6839 96° East 369 425 17,100 1,740 Climbing Houston Center
04:27PM 29.8850 -94.5603 96° East 382 440 19,400 1,980 Climbing Houston Center
04:28PM 29.8733 -94.4350 96° East 390 449 21,300 1,500 Climbing Houston Center
04:29PM 29.8625 -94.3042 95° East 403 464 22,600 780 Climbing Houston Center
04:30PM 29.8569 -94.1669 93° East 421 484 23,000 360 Climbing Houston Center
04:31PM 29.8561 -94.0117 90° East 421 484 23,400 960 Climbing Houston Center
04:32PM 29.8706 -93.8753 83° East 428 493 25,000 1,440 Climbing Houston Center
04:33PM 29.8836 -93.7356 84° East 437 503 26,400 960 Climbing Houston Center
04:34PM 29.8967 -93.5956 84° East 443 510 27,000 240 Climbing Houston Center
04:35PM 29.9075 -93.4558 85° East 443 510 26,900  Descending Houston Center
04:36PM 29.9231 -93.2883 84° East 443 510 27,000  Climbing Houston Center
04:37PM 29.9361 -93.1478 84° East 445 512 26,900  Descending Houston Center
04:38PM 29.9489 -93.0081 84° East 443 510 27,000  Climbing Houston Center
04:39PM 29.9614 -92.8692 84° East 439 505 27,000 -60 Level Houston Center
04:40PM 29.9731 -92.7281 85° East 443 510 26,900  Descending Houston Center
04:41PM 29.9878 -92.5586 84° East 445 512 27,000  Climbing Houston Center
04:42PM 30.0008 -92.4167 84° East 446 513 26,900 -60 Descending Houston Center
04:44PM 30.0119 -92.2750 85° East 447 514 26,900 -240 Level Houston Center
04:45PM 30.0244 -92.1339 84° East 444 511 26,400 -780 Descending Houston Center
04:46PM 30.0367 -91.9928 84° East 444 511 25,400 -1,260 Descending Houston Center
04:47PM 30.0489 -91.8275 85° East 434 499 23,800 -1,860 Descending Houston Center
04:48PM 30.0611 -91.6889 84° East 419 482 21,600 -2,040 Descending Houston Center
04:49PM 30.0711 -91.5600 85° East 407 468 19,600 -1,920 Descending Houston Center
04:50PM 30.0800 -91.4361 85° East 391 450 17,700 -1,800 Descending Houston Center
04:51PM 30.0889 -91.3156 85° East 380 437 15,900 -2,040 Descending Houston Center
04:52PM 30.0981 -91.2172 84° East 366 421 14,100 -2,040 Descending Houston Center
04:52PM 30.0978 -91.1992 91° East 368 423 13,800 -2,160 Descending Houston Center
04:52PM 30.1047 -91.1450 82° East 361 415 12,800 -2,040 Descending Houston Center
04:53PM 30.1081 -91.0861 86° East 357 411 11,700 -1,380 Descending Houston Center
04:53PM 30.1136 -91.0031 86° East 339 390 11,000 -720 Descending Houston Center
04:54PM 30.1164 -90.9625 85° East 318 366 11,000  Level Houston Center
04:54PM 30.1158 -90.9236 91° East 292 336 11,000 -420 Level Houston Center
04:55PM 30.1083 -90.8711 99° East 290 334 10,600 -1,080 Descending Houston Center
04:55PM 30.1008 -90.8256 101° East 284 327 9,800 -1,500 Descending Houston Center
04:56PM 30.0947 -90.7808 99° East 287 330 9,100 -1,380 Descending Houston Center
04:56PM 30.0861 -90.7372 103° East 284 327 8,400 -1,500 Descending Houston Center
04:57PM 30.0789 -90.6919 100° East 285 328 7,600 -1,740 Descending Houston Center
04:57PM 30.0711 -90.6489 102° East 276 318 6,700 -2,040 Descending Houston Center
04:58PM 30.0633 -90.6083 102° East 278 320 5,500 -2,280 Descending Houston Center
04:59PM 30.0539 -90.5558 102° East 261 300 4,200 -2,340 Descending Houston Center
04:59PM 30.0467 -90.5119 101° East 266 306 3,100 -1,860 Descending Houston Center
04:59PM 30.0417 -90.4939 108° East 255 293 2,700 -720 Descending Houston Center
05:00PM 30.0339 -90.4342 99° East 257 296 2,400 -720 Descending Houston Center
05:01PM 30.0267 -90.4081 108° East 196 226 1,900 -780 Descending Houston Center
05:01PM 30.0208 -90.3822 105° East 204 235 1,600 -600 Descending Houston Center
05:01PM 30.0150 -90.3628 109° East 150 173 1,400 -720 Descending Houston Center
05:02PM 30.0089 -90.3353 104° East 173 199 900 -780 Descending Houston Center
05:02PM 30.0053 -90.3222 108° East 142 163 700 -600 Descending Houston Center
05:03PM 30.0003 -90.2953 102° East 151 174 300 -360 Descending Houston Center
05:04PM 29.9897 -90.2553 107° East 148 170 100 -240 Descending Houston Center